Time;durP1;ratioP1;P1;durP2;ratioP2;P2;SDS_P1;SDS_P2;PMS_P1;PMS_P2;Temp;Humidity;BMP_temperature;BMP_pressure;BME280_temperature;BME280_humidity;BME280_pressure;Samples;Min_cycle;Max_cycle;Signal;HPM_P1;HPM_P2
2024/01/26 00:02:15;;;;;;;9.98;3.17;;;;;;;3.76;57.32;95070.53;5131688;27;20022;-69
2024/01/26 00:04:40;;;;;;;5.78;2.80;;;;;;;3.71;57.92;95076.81;5098243;27;20063;-69
2024/01/26 00:07:06;;;;;;;6.85;3.00;;;;;;;3.76;57.29;95077.38;5134425;27;20031;-69
2024/01/26 00:09:31;;;;;;;5.88;2.95;;;;;;;3.65;57.84;95066.84;5146841;27;20061;-69
2024/01/26 00:11:57;;;;;;;7.10;3.20;;;;;;;3.74;58.05;95082.63;5112764;27;20039;-70
2024/01/26 00:14:22;;;;;;;8.10;3.20;;;;;;;3.66;58.37;95069.34;5132440;27;20030;-69
2024/01/26 00:16:48;;;;;;;11.02;3.85;;;;;;;3.62;58.65;95087.53;5131603;27;20046;-69
2024/01/26 00:19:13;;;;;;;6.72;3.63;;;;;;;3.68;58.06;95089.81;5130071;27;20480;-69
2024/01/26 00:21:38;;;;;;;6.45;3.00;;;;;;;3.67;57.97;95085.56;5115669;27;20489;-69
2024/01/26 00:24:04;;;;;;;7.32;3.17;;;;;;;3.61;58.75;95084.16;5132248;27;20034;-69
2024/01/26 00:26:30;;;;;;;6.47;3.38;;;;;;;3.67;58.10;95094.09;5132832;27;20134;-69
2024/01/26 00:28:55;;;;;;;7.43;3.75;;;;;;;3.73;58.47;95098.97;5130922;27;20038;-69
2024/01/26 00:31:21;;;;;;;10.02;3.30;;;;;;;3.71;58.11;95105.09;5132625;27;20039;-69
2024/01/26 00:33:47;;;;;;;6.65;2.90;;;;;;;3.62;58.25;95103.78;5129303;27;20476;-69
2024/01/26 00:36:12;;;;;;;10.18;3.35;;;;;;;3.67;58.07;95101.00;5134242;27;20072;-69
2024/01/26 00:38:39;;;;;;;7.78;3.10;;;;;;;3.62;58.13;95101.22;5129975;27;20423;-69
2024/01/26 00:41:04;;;;;;;6.57;2.67;;;;;;;3.67;57.98;95108.69;5115259;27;20031;-69
2024/01/26 00:43:29;;;;;;;9.98;2.67;;;;;;;3.58;58.07;95107.44;5132826;27;20027;-69
2024/01/26 00:45:55;;;;;;;8.95;3.00;;;;;;;3.58;58.68;95121.09;5131271;27;20096;-69
2024/01/26 00:48:20;;;;;;;7.68;3.08;;;;;;;3.41;58.27;95090.31;5131906;27;20023;-69
2024/01/26 00:50:46;;;;;;;6.03;2.50;;;;;;;3.60;57.62;95110.75;5110172;27;20126;-69
2024/01/26 00:53:12;;;;;;;5.72;2.50;;;;;;;3.71;57.83;95116.19;5098535;27;20405;-69
2024/01/26 00:55:37;;;;;;;7.53;2.40;;;;;;;3.76;57.51;95110.78;5096767;27;20066;-69
2024/01/26 00:58:03;;;;;;;9.52;3.10;;;;;;;3.73;57.72;95113.53;5131385;27;20031;-69
2024/01/26 01:00:29;;;;;;;6.15;2.33;;;;;;;3.66;56.92;95107.06;5114650;27;20039;-69
2024/01/26 01:02:54;;;;;;;7.72;2.72;;;;;;;3.65;57.46;95113.06;5114902;27;20075;-69
2024/01/26 01:05:20;;;;;;;4.68;2.20;;;;;;;3.60;57.54;95112.50;5130142;27;20043;-69
2024/01/26 01:07:45;;;;;;;6.35;2.70;;;;;;;3.55;57.71;95089.59;5128991;27;20019;-69
2024/01/26 01:10:11;;;;;;;5.07;1.98;;;;;;;3.56;57.19;95115.19;5131844;27;20466;-69
2024/01/26 01:12:42;;;;;;;7.80;2.70;;;;;;;3.65;57.02;95102.81;5113784;27;20055;-69
2024/01/26 01:15:14;;;;;;;;;;;;;;;3.64;56.17;95112.25;5130153;27;20030;-69
2024/01/26 01:17:40;;;;;;;5.85;2.33;;;;;;;3.63;56.64;95108.03;5130805;27;19912;-68
2024/01/26 01:20:08;;;;;;;4.32;2.20;;;;;;;3.61;56.69;95109.03;5113821;27;20122;-69
2024/01/26 01:22:34;;;;;;;6.38;2.08;;;;;;;3.58;56.45;95099.72;5114699;27;20114;-69
2024/01/26 01:24:59;;;;;;;6.10;2.55;;;;;;;3.45;56.76;95091.78;5127942;27;20118;-69
2024/01/26 01:27:25;;;;;;;5.35;2.10;;;;;;;3.53;56.53;95119.69;5131782;27;20394;-69
2024/01/26 01:29:50;;;;;;;7.22;2.22;;;;;;;3.48;57.53;95111.38;5131009;27;20035;-69
2024/01/26 01:32:16;;;;;;;5.95;2.22;;;;;;;3.54;57.08;95106.78;5129605;27;20023;-69
2024/01/26 01:34:43;;;;;;;7.65;2.60;;;;;;;3.44;57.32;95095.28;5130124;27;20027;-69
2024/01/26 01:37:08;;;;;;;4.28;2.17;;;;;;;3.43;57.09;95101.34;5109863;28;20500;-69
2024/01/26 01:39:34;;;;;;;7.43;2.45;;;;;;;3.57;57.89;95116.06;5107044;28;20032;-69
2024/01/26 01:41:59;;;;;;;6.00;2.00;;;;;;;3.43;56.87;95105.66;5129483;27;20053;-69
2024/01/26 01:44:24;;;;;;;6.55;2.40;;;;;;;3.43;57.35;95087.69;5130487;27;20476;-69
2024/01/26 01:46:50;;;;;;;8.18;2.83;;;;;;;3.42;57.25;95104.78;5129837;27;20023;-68
2024/01/26 01:49:15;;;;;;;5.13;2.30;;;;;;;3.30;57.45;95090.00;5110392;28;20092;-69
2024/01/26 01:51:43;;;;;;;6.25;2.33;;;;;;;3.38;57.71;95090.47;5121160;27;20038;-69
2024/01/26 01:54:09;;;;;;;8.27;2.17;;;;;;;3.27;57.88;95093.56;5129032;27;20095;-69
2024/01/26 01:56:34;;;;;;;6.07;1.88;;;;;;;3.22;58.39;95085.25;5113847;27;20480;-69
2024/01/26 01:58:59;;;;;;;6.65;1.88;;;;;;;3.25;58.17;95102.25;5124974;27;20049;-69
2024/01/26 02:01:25;;;;;;;6.43;2.10;;;;;;;3.17;58.38;95101.78;5114140;27;20035;-68
2024/01/26 02:03:50;;;;;;;5.13;2.15;;;;;;;3.26;58.58;95103.91;5130493;27;20062;-69
2024/01/26 02:06:16;;;;;;;7.38;2.38;;;;;;;3.20;58.76;95097.31;5132624;27;20039;-69
2024/01/26 02:08:42;;;;;;;6.00;2.35;;;;;;;3.08;59.13;95101.34;5132176;27;20031;-69
2024/01/26 02:11:07;;;;;;;9.20;2.30;;;;;;;3.20;58.66;95104.19;5130363;27;20473;-69
2024/01/26 02:13:33;;;;;;;10.32;2.55;;;;;;;3.08;58.82;95087.69;5129954;27;20023;-69
2024/01/26 02:15:58;;;;;;;5.00;1.92;;;;;;;3.10;58.72;95106.41;5112454;27;20069;-69
2024/01/26 02:18:24;;;;;;;9.32;2.70;;;;;;;3.02;59.22;95093.94;5129820;27;20038;-69
2024/01/26 02:20:49;;;;;;;4.15;2.30;;;;;;;2.96;59.45;95086.53;5094736;27;20043;-68
2024/01/26 02:23:24;;;;;;;8.75;2.38;;;;;;;3.05;59.22;95101.50;5131289;27;20034;-69
2024/01/26 02:25:50;;;;;;;6.07;2.15;;;;;;;2.87;58.50;95061.31;5096751;27;20133;-69
2024/01/26 02:28:15;;;;;;;5.88;2.58;;;;;;;3.16;58.80;95111.22;5127293;27;20511;-69
2024/01/26 02:30:40;;;;;;;10.45;2.70;;;;;;;3.17;57.92;95106.94;5111301;27;20058;-69
2024/01/26 02:33:06;;;;;;;4.68;2.25;;;;;;;3.10;58.60;95111.53;5131194;27;20015;-69
2024/01/26 02:35:31;;;;;;;8.80;2.00;;;;;;;3.13;57.88;95101.94;5130431;27;20041;-69
2024/01/26 02:37:56;;;;;;;8.07;2.50;;;;;;;3.10;57.75;95102.09;5123517;27;20588;-69
2024/01/26 02:40:22;;;;;;;7.57;2.22;;;;;;;3.02;57.71;95098.25;5126259;27;20412;-69
2024/01/26 02:42:47;;;;;;;5.63;2.40;;;;;;;3.00;57.74;95098.31;5126962;27;20019;-69
2024/01/26 02:45:13;;;;;;;3.83;1.63;;;;;;;2.87;58.15;95104.94;5127378;27;20035;-69
2024/01/26 02:47:38;;;;;;;5.88;2.08;;;;;;;3.09;57.47;95104.72;5127924;27;20023;-69
2024/01/26 02:50:05;;;;;;;6.95;1.92;;;;;;;3.20;57.55;95105.03;5124250;27;20469;-69
2024/01/26 02:52:30;;;;;;;5.95;2.03;;;;;;;3.06;58.13;95110.00;5131317;27;20513;-69
2024/01/26 02:54:56;;;;;;;7.82;2.05;;;;;;;3.05;57.57;95113.50;5125724;27;20027;-69
2024/01/26 02:57:21;;;;;;;8.18;2.53;;;;;;;2.96;58.24;95114.78;5129863;28;20416;-69
2024/01/26 02:59:46;;;;;;;5.72;2.30;;;;;;;2.98;58.00;95123.25;5128403;28;20087;-69
2024/01/26 03:02:12;;;;;;;7.18;2.15;;;;;;;3.01;57.61;95117.97;5131122;27;20020;-69
2024/01/26 03:04:37;;;;;;;4.22;2.00;;;;;;;2.98;57.64;95114.69;5126402;28;20447;-69
2024/01/26 03:07:03;;;;;;;5.05;2.03;;;;;;;3.03;58.13;95126.38;5130271;27;20477;-69
2024/01/26 03:09:28;;;;;;;5.30;2.17;;;;;;;3.00;58.04;95125.72;5131129;27;20385;-69
2024/01/26 03:11:54;;;;;;;5.38;1.88;;;;;;;3.05;57.45;95124.59;5129478;27;20023;-69
2024/01/26 03:14:19;;;;;;;4.32;1.70;;;;;;;3.08;57.20;95118.47;5127556;28;20431;-69
2024/01/26 03:16:45;;;;;;;7.32;2.30;;;;;;;2.99;57.76;95118.94;5129934;28;20401;-69
2024/01/26 03:19:11;;;;;;;6.15;2.20;;;;;;;3.03;57.47;95120.44;5112819;28;20439;-69
2024/01/26 03:21:43;;;;;;;7.80;2.40;;;;;;;3.12;57.27;95131.09;5113073;28;20027;-69
2024/01/26 03:24:08;;;;;;;4.13;2.13;;;;;;;3.19;57.50;95139.31;5128463;28;20032;-69
2024/01/26 03:26:34;;;;;;;7.15;2.22;;;;;;;3.16;57.63;95136.09;5130099;28;20031;-69
2024/01/26 03:28:59;;;;;;;9.18;2.38;;;;;;;3.14;57.53;95121.56;5112155;28;20489;-69
2024/01/26 03:31:25;;;;;;;6.30;2.50;;;;;;;3.10;57.82;95137.22;5130766;27;20430;-69
2024/01/26 03:33:50;;;;;;;7.40;2.20;;;;;;;2.89;58.26;95109.09;5134098;27;20027;-69
2024/01/26 03:36:17;;;;;;;5.47;2.22;;;;;;;3.02;58.24;95119.59;5134126;27;20023;-69
2024/01/26 03:38:43;;;;;;;6.07;2.17;;;;;;;3.20;57.71;95111.91;5133984;27;20027;-69
2024/01/26 03:41:08;;;;;;;7.75;2.72;;;;;;;3.23;57.71;95098.91;5133947;27;20046;-69
2024/01/26 03:43:35;;;;;;;7.72;2.38;;;;;;;3.20;57.43;95112.72;5133870;27;20076;-69
2024/01/26 03:46:02;;;;;;;6.72;2.20;;;;;;;3.06;58.48;95110.84;5116935;27;20088;-69
2024/01/26 03:48:28;;;;;;;6.15;2.00;;;;;;;3.06;58.33;95110.00;5116863;27;20037;-69
2024/01/26 03:50:53;;;;;;;5.22;2.20;;;;;;;2.99;58.11;95109.50;5115523;27;20039;-69
2024/01/26 03:53:18;;;;;;;6.32;2.20;;;;;;;3.07;58.06;95121.97;5133806;27;20026;-69
2024/01/26 03:55:44;;;;;;;6.57;2.55;;;;;;;3.12;57.70;95123.41;5133851;27;20412;-69
2024/01/26 03:58:09;;;;;;;7.68;2.75;;;;;;;3.08;58.36;95124.44;5134926;27;20030;-69
2024/01/26 04:00:35;;;;;;;6.20;2.42;;;;;;;2.94;58.39;95095.22;5132145;27;20130;-69
2024/01/26 04:03:01;;;;;;;6.25;2.35;;;;;;;3.00;58.14;95126.53;5134588;27;20019;-69
2024/01/26 04:05:26;;;;;;;7.95;2.63;;;;;;;3.00;58.05;95133.41;5134780;27;20039;-69
2024/01/26 04:07:52;;;;;;;6.10;2.50;;;;;;;3.07;57.93;95130.50;5133084;27;20480;-69
2024/01/26 04:10:17;;;;;;;6.38;2.30;;;;;;;3.00;58.99;95118.84;5130314;27;20115;-69
2024/01/26 04:12:42;;;;;;;8.55;2.92;;;;;;;2.97;58.46;95136.13;5111417;28;20050;-69
2024/01/26 04:15:08;;;;;;;8.35;2.70;;;;;;;2.93;58.57;95127.75;5111180;28;20512;-69
2024/01/26 04:17:33;;;;;;;8.85;3.60;;;;;;;2.92;58.34;95133.78;5111392;28;20485;-69
2024/01/26 04:19:59;;;;;;;5.90;2.50;;;;;;;2.99;58.32;95140.28;5094590;28;20477;-69
2024/01/26 04:22:24;;;;;;;7.18;2.60;;;;;;;2.98;57.56;95130.94;5111472;28;20027;-69
2024/01/26 04:24:49;;;;;;;7.35;2.65;;;;;;;2.97;58.33;95146.41;5112505;28;20061;-69
2024/01/26 04:27:15;;;;;;;8.10;2.40;;;;;;;2.97;58.19;95131.81;5113810;28;20046;-69
2024/01/26 04:29:40;;;;;;;3.90;1.88;;;;;;;2.98;58.17;95132.66;5113706;28;20077;-69
2024/01/26 04:32:06;;;;;;;8.02;2.03;;;;;;;2.94;57.67;95120.88;5112683;28;20020;-69
2024/01/26 04:34:31;;;;;;;7.88;2.38;;;;;;;3.02;57.10;95124.75;5112477;28;20418;-69
2024/01/26 04:36:57;;;;;;;10.40;2.67;;;;;;;3.11;57.34;95119.16;5112470;28;20034;-69
2024/01/26 04:39:22;;;;;;;5.97;2.55;;;;;;;3.15;57.10;95122.41;5111330;28;20074;-69
2024/01/26 04:41:47;;;;;;;18.05;10.90;;;;;;;3.16;57.10;95143.78;5113368;28;20034;-69
2024/01/26 04:44:13;;;;;;;6.25;2.60;;;;;;;3.02;56.90;95129.88;5095250;28;20030;-69
2024/01/26 04:46:39;;;;;;;5.47;2.30;;;;;;;3.19;57.03;95135.94;5095484;28;20042;-69
2024/01/26 04:49:05;;;;;;;6.70;3.30;;;;;;;3.21;57.08;95141.84;5113400;28;20027;-69
2024/01/26 04:51:30;;;;;;;6.45;2.80;;;;;;;3.18;57.03;95158.22;5112327;28;20043;-69
2024/01/26 04:53:55;;;;;;;3.67;2.22;;;;;;;3.11;56.89;95144.81;5111922;28;20020;-69
2024/01/26 04:56:21;;;;;;;6.57;2.20;;;;;;;3.18;56.35;95139.41;5112301;28;20386;-69
2024/01/26 04:58:47;;;;;;;8.13;2.50;;;;;;;3.20;56.62;95140.97;5128755;27;20035;-69
2024/01/26 05:01:12;;;;;;;8.98;2.42;;;;;;;3.10;56.41;95130.34;5120590;27;20049;-69
2024/01/26 05:03:38;;;;;;;8.10;2.42;;;;;;;3.12;56.29;95131.09;5115167;27;20066;-69
2024/01/26 05:06:04;;;;;;;6.53;2.75;;;;;;;3.06;56.70;95125.41;5121033;27;20432;-70
2024/01/26 05:08:29;;;;;;;5.28;2.38;;;;;;;3.04;56.57;95125.50;5124830;27;20035;-69
2024/01/26 05:10:55;;;;;;;6.05;2.80;;;;;;;3.06;56.79;95141.63;5113897;27;20122;-67
2024/01/26 05:13:20;;;;;;;6.15;2.85;;;;;;;2.96;56.56;95096.81;5118873;27;20030;-69
2024/01/26 05:15:45;;;;;;;7.78;3.95;;;;;;;2.99;56.97;95109.50;5124691;27;20497;-69
2024/01/26 05:18:11;;;;;;;15.23;7.75;;;;;;;3.06;57.35;95136.50;5114602;27;20024;-69
2024/01/26 05:20:37;;;;;;;7.25;3.97;;;;;;;2.87;57.30;95136.59;5119695;27;20035;-69
2024/01/26 05:23:03;;;;;;;13.02;4.97;;;;;;;2.90;58.16;95118.47;5122648;27;20038;-69
2024/01/26 05:25:28;;;;;;;6.15;3.22;;;;;;;2.97;58.18;95131.81;5108648;27;20051;-68
2024/01/26 05:27:54;;;;;;;15.55;7.85;;;;;;;2.96;58.29;95144.75;5103945;28;20027;-68
2024/01/26 05:30:19;;;;;;;12.68;6.97;;;;;;;2.87;58.32;95133.16;5114956;27;20421;-69
2024/01/26 05:32:45;;;;;;;14.50;6.80;;;;;;;2.87;57.82;95148.56;5119654;27;20039;-68
2024/01/26 05:35:10;;;;;;;12.55;4.93;;;;;;;2.83;58.14;95165.84;5105743;28;20409;-68
2024/01/26 05:37:36;;;;;;;26.00;8.23;;;;;;;2.72;57.82;95131.34;5090128;27;20027;-68
2024/01/26 05:40:24;;;;;;;22.05;7.43;;;;;;;2.85;57.64;95152.94;5117822;27;20035;-69
2024/01/26 05:42:49;;;;;;;11.57;4.40;;;;;;;2.93;57.24;95155.16;5127125;27;20487;-68
2024/01/26 05:45:16;;;;;;;24.50;8.27;;;;;;;2.88;57.47;95158.75;5121779;27;20040;-68
2024/01/26 05:47:41;;;;;;;20.38;5.30;;;;;;;2.89;57.36;95146.75;5112651;27;20055;-68
2024/01/26 05:50:07;;;;;;;17.52;6.35;;;;;;;3.00;56.75;95171.91;5104079;27;20507;-68
2024/01/26 05:52:32;;;;;;;7.20;2.90;;;;;;;2.87;56.77;95185.34;5117300;27;20518;-70
2024/01/26 05:54:58;;;;;;;7.30;2.53;;;;;;;2.89;56.92;95169.84;5140488;27;20107;-69
2024/01/26 05:57:23;;;;;;;9.20;4.07;;;;;;;2.91;57.02;95165.47;5129442;27;20432;-69
2024/01/26 05:59:49;;;;;;;14.68;5.88;;;;;;;2.83;56.87;95170.16;5114165;27;20035;-69
2024/01/26 06:02:14;;;;;;;12.13;4.68;;;;;;;2.85;56.80;95163.22;5113809;27;20031;-70
2024/01/26 06:04:39;;;;;;;5.35;2.65;;;;;;;2.78;57.34;95179.78;5130101;27;20047;-69
2024/01/26 06:07:05;;;;;;;5.60;2.17;;;;;;;2.83;56.84;95181.25;5127763;27;20436;-68
2024/01/26 06:09:30;;;;;;;7.88;3.45;;;;;;;2.81;57.02;95175.34;5113507;27;20011;-69
2024/01/26 06:11:56;;;;;;;9.80;3.28;;;;;;;2.81;57.18;95177.06;5129221;27;20389;-69
2024/01/26 06:14:21;;;;;;;14.52;7.18;;;;;;;2.74;57.61;95175.72;5131882;27;20023;-69
2024/01/26 06:16:47;;;;;;;8.32;3.75;;;;;;;2.87;57.15;95177.63;5128756;27;20072;-68
2024/01/26 06:19:12;;;;;;;5.78;3.13;;;;;;;2.91;56.90;95174.00;5132115;27;20104;-69
2024/01/26 06:21:38;;;;;;;7.55;3.20;;;;;;;2.84;56.97;95167.53;5150597;27;20035;-71
2024/01/26 06:24:03;;;;;;;11.20;3.50;;;;;;;2.90;57.38;95192.06;5129496;27;20030;-69
2024/01/26 06:26:29;;;;;;;7.25;2.83;;;;;;;2.65;56.72;95156.44;5136522;27;20456;-68
2024/01/26 06:28:57;;;;;;;7.38;3.22;;;;;;;2.77;57.44;95193.53;5129957;27;20484;-68
2024/01/26 06:31:26;;;;;;;6.65;2.88;;;;;;;2.87;57.63;95207.56;5151195;27;20031;-69
2024/01/26 06:33:51;;;;;;;6.40;2.58;;;;;;;2.89;57.08;95204.03;5122716;27;20038;-68
2024/01/26 06:36:16;;;;;;;9.70;3.10;;;;;;;3.01;56.49;95188.97;5136890;27;20503;-69
2024/01/26 06:38:42;;;;;;;8.00;3.08;;;;;;;2.98;57.10;95202.81;5131192;27;20031;-68
2024/01/26 06:41:07;;;;;;;8.55;4.50;;;;;;;3.00;56.89;95203.53;5129073;27;20417;-69
2024/01/26 06:43:33;;;;;;;6.95;3.58;;;;;;;2.94;57.26;95201.28;5131619;27;20038;-68
2024/01/26 06:45:58;;;;;;;13.68;4.40;;;;;;;2.80;57.26;95206.22;5126898;27;20114;-68
2024/01/26 06:48:26;;;;;;;8.23;3.38;;;;;;;2.86;57.65;95221.31;5131223;27;20023;-69
2024/01/26 06:50:52;;;;;;;8.75;2.80;;;;;;;2.98;57.08;95210.50;5128976;27;20110;-68
2024/01/26 06:53:17;;;;;;;9.60;3.15;;;;;;;2.99;56.28;95204.47;5130096;28;20164;-69
2024/01/26 06:55:42;;;;;;;7.03;2.75;;;;;;;3.01;56.41;95199.22;5128102;28;20023;-68
2024/01/26 06:58:08;;;;;;;7.68;2.42;;;;;;;2.96;56.63;95217.44;5109330;28;20481;-68
2024/01/26 07:00:34;;;;;;;5.35;2.65;;;;;;;3.02;56.24;95217.16;5115274;28;20522;-69
2024/01/26 07:02:59;;;;;;;8.15;3.25;;;;;;;2.94;56.87;95213.28;5125427;28;20023;-68
2024/01/26 07:05:25;;;;;;;7.68;2.90;;;;;;;2.99;56.15;95219.03;5128547;27;20047;-69
2024/01/26 07:07:50;;;;;;;8.27;2.33;;;;;;;3.03;55.94;95213.66;5134415;27;20056;-68
2024/01/26 07:10:16;;;;;;;8.30;2.80;;;;;;;3.00;55.80;95218.94;5125640;27;20047;-69
2024/01/26 07:12:41;;;;;;;5.75;2.50;;;;;;;3.04;56.13;95235.88;5091944;28;20050;-69
2024/01/26 07:15:09;;;;;;;7.00;2.90;;;;;;;3.06;55.64;95221.22;5132240;27;20038;-69
2024/01/26 07:17:35;;;;;;;10.38;3.00;;;;;;;3.07;55.64;95220.34;5113822;27;20032;-69
2024/01/26 07:20:00;;;;;;;5.03;2.53;;;;;;;3.23;55.36;95237.56;5137353;27;20070;-69
2024/01/26 07:22:26;;;;;;;6.25;2.67;;;;;;;3.09;55.34;95217.69;5120431;27;20059;-71
2024/01/26 07:24:53;;;;;;;6.93;2.95;;;;;;;3.21;55.54;95236.84;5102057;27;20080;-69
2024/01/26 07:27:18;;;;;;;6.18;2.25;;;;;;;3.19;54.96;95230.94;5130527;27;20027;-69
2024/01/26 07:29:45;;;;;;;6.63;3.03;;;;;;;3.24;55.84;95234.13;5133562;27;20035;-69
2024/01/26 07:32:11;;;;;;;12.38;3.25;;;;;;;3.17;55.11;95214.75;5133305;27;20023;-70
2024/01/26 07:34:36;;;;;;;7.28;2.88;;;;;;;3.32;54.85;95244.84;5116764;27;20031;-68
2024/01/26 07:37:02;;;;;;;5.80;2.97;;;;;;;3.37;54.64;95232.59;5115818;27;20024;-68
2024/01/26 07:39:28;;;;;;;8.10;2.60;;;;;;;3.38;54.99;95225.75;5111187;28;20421;-69
2024/01/26 07:41:53;;;;;;;10.95;2.78;;;;;;;3.74;54.18;95234.22;5094348;28;20028;-68
2024/01/26 07:44:19;;;;;;;9.88;2.88;;;;;;;3.77;53.78;95222.97;5095674;28;20028;-69
2024/01/26 07:46:44;;;;;;;8.98;2.80;;;;;;;3.62;53.65;95198.84;5093798;28;20413;-68
2024/01/26 07:49:09;;;;;;;8.80;3.10;;;;;;;4.13;52.58;95232.31;5094581;28;20398;-69
2024/01/26 07:51:35;;;;;;;9.38;2.60;;;;;;;5.36;50.73;95244.66;5112790;28;20468;-69
2024/01/26 07:54:00;;;;;;;5.68;2.60;;;;;;;5.85;48.01;95228.16;5111122;28;20047;-69
2024/01/26 07:56:26;;;;;;;5.28;2.50;;;;;;;5.85;47.13;95208.38;5111456;28;20500;-68
2024/01/26 07:58:51;;;;;;;9.40;2.38;;;;;;;7.25;45.15;95249.03;5094173;28;20536;-68
2024/01/26 08:01:17;;;;;;;7.47;2.70;;;;;;;6.64;45.49;95261.38;5112649;28;20312;-69
2024/01/26 08:03:42;;;;;;;7.35;2.80;;;;;;;6.14;46.87;95253.13;5106212;28;20525;-69
2024/01/26 08:06:08;;;;;;;6.28;2.50;;;;;;;6.03;47.22;95251.16;5092856;28;20047;-69
2024/01/26 08:08:33;;;;;;;7.20;2.63;;;;;;;5.64;48.25;95246.50;5075701;28;20413;-69
2024/01/26 08:10:59;;;;;;;6.65;3.00;;;;;;;5.60;48.88;95250.19;5094232;28;20053;-69
2024/01/26 08:13:25;;;;;;;8.18;3.63;;;;;;;5.52;48.80;95272.97;5092740;28;20020;-68
2024/01/26 08:15:50;;;;;;;7.75;2.78;;;;;;;5.16;49.16;95266.34;5092591;28;20085;-68
2024/01/26 08:18:16;;;;;;;9.30;2.50;;;;;;;4.72;50.00;95259.25;5091836;28;20559;-68
2024/01/26 08:20:41;;;;;;;6.80;3.05;;;;;;;4.56;51.63;95263.53;5092375;28;20040;-68
2024/01/26 08:23:06;;;;;;;8.95;3.17;;;;;;;4.78;51.14;95266.66;5092313;28;20020;-68
2024/01/26 08:25:33;;;;;;;5.68;2.53;;;;;;;4.86;50.99;95285.09;5092367;28;20024;-68
2024/01/26 08:27:58;;;;;;;5.40;2.35;;;;;;;4.65;51.13;95261.34;5092276;28;20028;-68
2024/01/26 08:30:24;;;;;;;6.75;2.97;;;;;;;4.63;51.77;95277.78;5093636;28;20101;-69
2024/01/26 08:32:50;;;;;;;6.75;2.78;;;;;;;4.62;51.65;95274.34;5093316;28;20547;-68
2024/01/26 08:35:16;;;;;;;7.65;2.65;;;;;;;4.51;51.62;95268.91;5092137;28;20038;-68
2024/01/26 08:37:41;;;;;;;12.40;2.97;;;;;;;4.59;51.39;95271.09;5092097;28;20028;-70
2024/01/26 08:40:09;;;;;;;8.40;3.15;;;;;;;4.69;52.04;95260.25;5093209;28;20036;-69
2024/01/26 08:42:34;;;;;;;6.90;3.10;;;;;;;4.75;51.81;95271.13;5075279;28;20024;-69
2024/01/26 08:45:00;;;;;;;11.55;3.35;;;;;;;4.83;52.02;95269.81;5091815;28;20039;-68
2024/01/26 08:47:25;;;;;;;9.55;3.53;;;;;;;5.18;51.61;95279.97;5074964;28;20020;-69
2024/01/26 08:49:51;;;;;;;7.30;3.00;;;;;;;5.26;50.89;95297.59;5091790;28;20043;-69
2024/01/26 08:52:16;;;;;;;6.45;2.65;;;;;;;4.93;50.55;95254.69;5092999;28;20080;-68
2024/01/26 08:54:42;;;;;;;20.83;6.85;;;;;;;5.30;50.57;95299.91;5091594;28;20077;-69
2024/01/26 08:57:07;;;;;;;13.75;5.50;;;;;;;5.16;50.91;95281.81;5091764;28;20504;-69
2024/01/26 08:59:33;;;;;;;7.55;2.83;;;;;;;5.10;50.52;95292.44;5092729;28;20031;-68
2024/01/26 09:01:58;;;;;;;13.15;5.28;;;;;;;5.18;50.95;95279.13;5074707;28;20020;-69
2024/01/26 09:04:24;;;;;;;30.13;12.52;;;;;;;5.20;50.95;95278.13;5091489;28;20055;-68
2024/01/26 09:06:49;;;;;;;24.13;10.73;;;;;;;5.13;51.01;95274.25;5074546;28;20028;-69
2024/01/26 09:09:15;;;;;;;13.15;8.57;;;;;;;5.20;50.67;95274.75;5092639;28;20031;-68
2024/01/26 09:11:40;;;;;;;10.07;3.83;;;;;;;5.21;50.94;95295.28;5074431;28;20035;-69
2024/01/26 09:14:06;;;;;;;9.15;3.70;;;;;;;5.26;51.46;95287.28;5091297;28;20032;-69
2024/01/26 09:16:31;;;;;;;10.00;3.47;;;;;;;5.31;50.73;95270.66;5091407;28;20093;-69
2024/01/26 09:18:57;;;;;;;10.45;4.00;;;;;;;5.34;50.06;95269.66;5091214;28;20088;-69
2024/01/26 09:21:22;;;;;;;13.18;6.45;;;;;;;5.45;51.01;95266.50;5092778;28;20032;-69
2024/01/26 09:23:48;;;;;;;20.40;11.57;;;;;;;5.64;50.75;95263.72;5091046;28;20036;-69
2024/01/26 09:26:13;;;;;;;16.92;6.30;;;;;;;5.36;50.81;95260.09;5091330;28;20521;-69
2024/01/26 09:28:39;;;;;;;8.10;4.70;;;;;;;5.74;51.07;95267.44;5090053;28;20043;-69
2024/01/26 09:31:04;;;;;;;10.50;4.38;;;;;;;5.69;50.07;95272.88;5091181;28;20032;-69
2024/01/26 09:33:30;;;;;;;11.45;3.72;;;;;;;5.75;50.18;95266.53;5090944;28;20092;-69
2024/01/26 09:35:56;;;;;;;14.27;4.28;;;;;;;5.63;50.39;95264.63;5091037;28;20032;-69
2024/01/26 09:38:24;;;;;;;7.85;4.40;;;;;;;5.51;50.10;95240.38;5074018;28;20028;-69
2024/01/26 09:40:50;;;;;;;11.35;3.65;;;;;;;5.25;50.82;95270.16;5090905;28;20036;-69
2024/01/26 09:43:16;;;;;;;9.85;4.70;;;;;;;5.38;50.64;95268.59;5090798;28;20020;-69
2024/01/26 09:45:41;;;;;;;11.23;5.75;;;;;;;5.66;49.66;95249.84;5073963;28;20065;-69
2024/01/26 09:48:07;;;;;;;9.73;3.53;;;;;;;5.90;49.63;95251.94;5090662;28;20024;-69
2024/01/26 09:50:32;;;;;;;11.75;5.75;;;;;;;5.72;50.48;95264.94;5092118;28;20038;-69
2024/01/26 09:52:58;;;;;;;8.30;3.60;;;;;;;5.96;49.90;95259.34;5090586;28;20024;-69
2024/01/26 09:55:23;;;;;;;10.80;4.28;;;;;;;5.77;49.76;95252.63;5090758;28;20062;-69
2024/01/26 09:57:49;;;;;;;9.75;4.03;;;;;;;5.81;49.11;95217.19;5090450;28;20032;-69
2024/01/26 10:00:14;;;;;;;47.80;16.27;;;;;;;5.82;49.28;95236.88;5073568;28;20043;-69
2024/01/26 10:02:43;;;;;;;16.33;6.45;;;;;;;5.79;50.07;95235.34;5073582;28;20036;-69
2024/01/26 10:05:08;;;;;;;16.65;6.00;;;;;;;5.97;49.68;95230.06;5090541;28;20082;-69
2024/01/26 10:07:34;;;;;;;12.68;6.15;;;;;;;6.12;49.06;95226.56;5090405;28;20028;-69
2024/01/26 10:09:59;;;;;;;6.43;3.72;;;;;;;6.05;48.91;95235.63;5073378;28;20609;-69
2024/01/26 10:12:25;;;;;;;9.60;4.85;;;;;;;6.09;48.47;95231.91;5091529;28;20034;-69
2024/01/26 10:15:02;;;;;;;11.77;5.13;;;;;;;6.08;48.78;95227.69;5090074;28;20086;-69
2024/01/26 10:17:28;;;;;;;11.95;4.80;;;;;;;5.86;48.96;95224.66;5073645;28;20032;-69
2024/01/26 10:19:53;;;;;;;9.60;4.18;;;;;;;6.05;48.67;95230.44;5090246;28;20081;-69
2024/01/26 10:22:19;;;;;;;10.55;4.28;;;;;;;5.91;48.50;95227.81;5090999;28;20046;-69
2024/01/26 10:24:44;;;;;;;11.70;3.92;;;;;;;5.91;49.18;95232.97;5090005;28;20050;-68
2024/01/26 10:27:10;;;;;;;7.75;3.85;;;;;;;5.83;48.49;95228.25;5090065;28;20035;-69
2024/01/26 10:29:37;;;;;;;15.55;4.97;;;;;;;5.65;48.99;95201.75;5099405;28;20069;-68
2024/01/26 10:32:02;;;;;;;13.43;4.72;;;;;;;5.76;49.29;95211.47;5109295;28;20035;-69
2024/01/26 10:34:28;;;;;;;8.68;3.90;;;;;;;5.74;49.84;95200.41;5110115;28;20024;-68
2024/01/26 10:36:53;;;;;;;12.45;5.45;;;;;;;5.74;49.72;95184.94;5093284;28;20031;-69
2024/01/26 10:39:29;;;;;;;12.82;4.72;;;;;;;5.77;49.04;95221.69;5075952;28;20088;-69
2024/01/26 10:42:03;;;;;;;9.93;3.92;;;;;;;5.80;48.73;95223.28;5111460;28;20054;-68
2024/01/26 10:44:28;;;;;;;7.57;3.92;;;;;;;5.72;48.83;95208.25;5109492;28;20118;-69
2024/01/26 10:46:55;;;;;;;10.30;4.47;;;;;;;5.66;49.66;95229.22;5092527;28;20440;-69
2024/01/26 10:49:21;;;;;;;11.43;4.50;;;;;;;5.53;49.34;95213.59;5109846;28;20404;-69
2024/01/26 10:51:47;;;;;;;19.60;5.47;;;;;;;5.42;48.46;95212.56;5110097;28;20031;-69
2024/01/26 10:54:13;;;;;;;6.65;3.55;;;;;;;5.66;48.76;95203.44;5076388;28;20405;-69
2024/01/26 10:56:39;;;;;;;12.52;5.00;;;;;;;5.91;48.76;95214.94;5093261;28;20043;-69
2024/01/26 10:59:10;;;;;;;10.07;4.35;;;;;;;5.91;49.10;95209.75;5109987;28;20408;-69
2024/01/26 11:01:38;;;;;;;14.80;5.65;;;;;;;5.94;49.02;95205.28;5093909;28;20039;-68
2024/01/26 11:04:04;;;;;;;17.08;4.50;;;;;;;6.12;47.75;95215.44;5102586;28;20046;-69
2024/01/26 11:06:31;;;;;;;10.73;4.32;;;;;;;6.15;47.39;95221.22;5130644;28;20035;-69
2024/01/26 11:09:00;;;;;;;10.10;3.83;;;;;;;5.72;47.90;95181.63;5113416;28;20025;-69
2024/01/26 11:11:35;;;;;;;8.68;3.47;;;;;;;5.79;47.04;95195.81;5130380;28;20469;-69
2024/01/26 11:14:01;;;;;;;9.38;3.78;;;;;;;5.90;47.58;95205.50;5130426;28;20065;-69
2024/01/26 11:16:40;;;;;;;8.40;3.50;;;;;;;5.96;47.50;95187.97;5113563;28;20436;-69
2024/01/26 11:19:06;;;;;;;7.93;3.53;;;;;;;6.00;47.25;95186.88;5113477;28;20420;-69
2024/01/26 11:21:42;;;;;;;6.28;3.40;;;;;;;6.21;46.95;95182.19;5131922;27;20035;-69
2024/01/26 11:24:16;;;;;;;10.35;4.78;;;;;;;6.12;48.18;95164.66;5113759;28;20023;-69
2024/01/26 11:26:42;;;;;;;20.05;8.50;;;;;;;6.38;47.49;95162.25;5113395;28;20176;-69
2024/01/26 11:29:16;;;;;;;8.45;4.80;;;;;;;6.40;46.77;95168.16;5130239;28;20098;-69
2024/01/26 11:31:44;;;;;;;11.02;5.45;;;;;;;6.40;47.23;95168.16;5113546;28;20448;-69
2024/01/26 11:34:17;;;;;;;14.48;5.22;;;;;;;6.60;47.06;95165.22;5113550;28;20039;-69